Time;durP1;ratioP1;P1;durP2;ratioP2;P2;SDS_P1;SDS_P2;PMS_P1;PMS_P2;Temp;Humidity;BMP_temperature;BMP_pressure;BME280_temperature;BME280_humidity;BME280_pressure;Samples;Min_cycle;Max_cycle;Signal;HPM_P1;HPM_P2
2023/08/12 00:01:16;;;;;;;;;4.00;4.00;;;;;23.15;72.32;101373.81;5017963;28;45833;-70
2023/08/12 00:03:42;;;;;;;;;6.33;5.33;;;;;23.07;72.56;101371.34;5017148;28;45269;-70
2023/08/12 00:06:07;;;;;;;;;4.67;4.67;;;;;22.97;72.66;101360.06;5000603;28;45488;-70
2023/08/12 00:08:32;;;;;;;;;4.67;4.00;;;;;22.97;72.57;101354.66;5018152;28;45575;-70
2023/08/12 00:10:57;;;;;;;;;7.00;6.00;;;;;22.63;72.29;101287.94;5018316;28;46824;-70
2023/08/12 00:13:23;;;;;;;;;5.00;5.00;;;;;23.03;72.91;101348.41;5018047;28;45456;-71
2023/08/12 00:15:48;;;;;;;;;3.25;3.25;;;;;22.95;72.88;101345.91;4999608;28;45456;-71
2023/08/12 00:18:15;;;;;;;;;6.00;6.00;;;;;22.98;73.28;101343.59;5018184;28;45412;-70
2023/08/12 00:20:40;;;;;;;;;5.33;5.33;;;;;23.00;73.18;101341.50;5000217;28;47758;-70
2023/08/12 00:23:05;;;;;;;;;6.33;5.00;;;;;22.99;72.93;101331.69;5017811;28;45447;-70
2023/08/12 00:25:31;;;;;;;;;5.75;4.75;;;;;23.03;72.93;101332.13;5018014;28;45524;-70
2023/08/12 00:27:56;;;;;;;;;4.67;4.67;;;;;22.98;72.87;101329.19;5017994;28;45471;-69
2023/08/12 00:30:21;;;;;;;;;4.00;4.00;;;;;22.94;73.07;101322.53;5017381;28;48291;-70
2023/08/12 00:32:47;;;;;;;;;8.00;7.00;;;;;22.95;73.23;101333.16;5017651;28;45467;-70
2023/08/12 00:35:12;;;;;;;;;5.33;5.33;;;;;22.93;73.20;101319.00;5018112;28;45371;-71
2023/08/12 00:37:37;;;;;;;;;1.33;1.33;;;;;23.02;72.93;101322.31;5017318;28;56535;-70
2023/08/12 00:40:04;;;;;;;;;7.33;5.00;;;;;23.02;73.23;101325.84;5017575;28;45664;-69
2023/08/12 00:42:29;;;;;;;;;3.00;3.00;;;;;23.00;72.98;101330.66;5017620;28;45548;-70
2023/08/12 00:44:54;;;;;;;;;5.67;3.67;;;;;23.02;72.88;101327.72;5017517;28;45902;-70
2023/08/12 00:47:20;;;;;;;;;5.00;3.67;;;;;22.65;73.03;101262.28;5017818;28;45448;-70
2023/08/12 00:49:46;;;;;;;;;6.00;5.00;;;;;22.88;73.12;101299.81;4999813;28;46670;-71
2023/08/12 00:52:16;;;;;;;;;5.00;3.67;;;;;22.67;72.87;101262.91;5017657;28;45538;-69
2023/08/12 00:54:42;;;;;;;;;4.00;4.00;;;;;23.02;72.93;101325.00;5000092;28;45280;-70
2023/08/12 00:57:08;;;;;;;;;4.67;4.67;;;;;23.09;72.97;101331.28;5017869;28;45356;-69
2023/08/12 00:59:36;;;;;;;;;6.00;4.67;;;;;23.03;73.22;101332.13;5017283;28;45487;-69
2023/08/12 01:02:01;;;;;;;;;4.75;4.75;;;;;23.06;73.64;101326.28;5017294;28;45272;-68
2023/08/12 01:04:27;;;;;;;;;4.00;4.00;;;;;23.00;73.85;101327.09;5017753;28;45554;-71
2023/08/12 01:06:52;;;;;;;;;4.33;4.33;;;;;23.02;74.32;101325.00;5017630;28;45464;-70
2023/08/12 01:09:18;;;;;;;;;8.00;6.67;;;;;23.01;74.20;101331.47;5017289;28;53473;-69
2023/08/12 01:12:03;;;;;;;;;3.75;3.75;;;;;22.96;74.32;101332.13;5017271;28;45527;-70
2023/08/12 01:14:37;;;;;;;;;6.67;5.00;;;;;23.02;74.31;101316.88;5017010;28;45443;-69
2023/08/12 01:17:07;;;;;;;;;6.00;6.00;;;;;22.92;74.05;101278.53;5017784;28;45263;-69
2023/08/12 01:19:37;;;;;;;;;5.00;5.00;;;;;23.11;73.75;101312.06;5017207;28;45681;-70
2023/08/12 01:22:06;;;;;;;;;5.00;5.00;;;;;22.71;74.34;101255.19;5017193;28;45239;-70
2023/08/12 01:24:41;;;;;;;;;4.67;4.67;;;;;22.91;74.57;101312.13;4999809;28;45577;-70
2023/08/12 01:27:09;;;;;;;;;4.00;4.00;;;;;22.91;74.92;101315.66;5017619;28;45438;-70
2023/08/12 01:29:37;;;;;;;;;4.25;3.25;;;;;22.85;75.38;101312.97;5016722;28;45636;-70
2023/08/12 01:32:30;;;;;;;;;4.67;3.00;;;;;22.87;75.52;101316.31;5017135;28;45403;-69
2023/08/12 01:35:19;;;;;;;;;2.67;2.67;;;;;22.71;76.73;101322.94;5017437;28;45359;-71
2023/08/12 01:37:45;;;;;;;;;6.67;6.00;;;;;22.65;76.87;101311.09;5017156;28;45525;-71
2023/08/12 01:40:12;;;;;;;;;1.75;1.75;;;;;22.51;76.87;101286.91;5016767;28;46317;-69
2023/08/12 01:42:40;;;;;;;;;4.00;4.00;;;;;22.34;76.33;101262.09;5016711;28;45376;-69
2023/08/12 01:45:06;;;;;;;;;4.00;4.00;;;;;22.67;77.07;101305.44;4998690;28;45662;-71
2023/08/12 01:47:32;;;;;;;;;2.25;2.25;;;;;22.67;77.52;101309.00;5016581;28;45534;-70
2023/08/12 01:49:57;;;;;;;;;3.67;3.67;;;;;22.69;76.62;101293.34;5016503;28;46326;-70
2023/08/12 01:52:23;;;;;;;;;4.33;3.33;;;;;22.73;76.68;101300.00;5016399;28;45298;-70
2023/08/12 01:54:48;;;;;;;;;2.00;2.00;;;;;22.35;76.58;101236.66;5016858;28;45380;-70
2023/08/12 01:57:13;;;;;;;;;3.00;3.00;;;;;22.65;77.16;101302.13;5016324;28;49894;-71
2023/08/12 01:59:39;;;;;;;;;3.00;2.00;;;;;22.70;76.67;101296.91;5016046;28;45494;-70
2023/08/12 02:02:04;;;;;;;;;1.25;1.25;;;;;22.36;76.94;101232.91;5016328;28;45545;-71
2023/08/12 02:04:30;;;;;;;;;2.25;2.25;;;;;22.63;77.42;101272.50;5016740;28;45424;-69
2023/08/12 02:06:56;;;;;;;;;2.75;2.75;;;;;22.62;77.51;101287.09;5016746;28;45425;-70
2023/08/12 02:09:22;;;;;;;;;4.00;3.00;;;;;22.45;77.50;101269.63;5016363;28;45305;-70
2023/08/12 02:11:48;;;;;;;;;2.00;2.00;;;;;22.57;77.48;101281.47;5016450;28;45485;-71
2023/08/12 02:14:13;;;;;;;;;4.25;3.00;;;;;22.57;78.18;101289.59;5016108;28;45345;-70
2023/08/12 02:16:39;;;;;;;;;2.25;2.00;;;;;22.51;77.82;101279.59;5016885;28;45578;-71
2023/08/12 02:19:04;;;;;;;;;2.25;1.75;;;;;22.48;78.09;101290.03;5016033;28;46510;-70
2023/08/12 02:21:29;;;;;;;;;5.75;2.00;;;;;22.28;78.32;101257.53;4998575;28;45531;-71
2023/08/12 02:23:55;;;;;;;;;2.75;1.00;;;;;22.34;78.57;101273.75;5016337;28;45258;-70
2023/08/12 02:26:20;;;;;;;;;4.25;1.75;;;;;22.38;78.71;101271.47;5000576;28;45509;-70
2023/08/12 02:28:45;;;;;;;;;2.00;2.00;;;;;22.48;78.07;101284.63;5001866;28;50873;-70
2023/08/12 02:31:11;;;;;;;;;2.00;2.00;;;;;22.45;78.38;101288.56;5001481;28;48926;-70
2023/08/12 02:33:36;;;;;;;;;2.25;2.25;;;;;22.40;78.66;101272.09;5019856;28;45345;-70
2023/08/12 02:36:01;;;;;;;;;3.50;1.50;;;;;22.38;78.39;101276.88;5019944;28;45402;-71
2023/08/12 02:38:27;;;;;;;;;3.00;2.00;;;;;22.36;78.91;101265.44;5019502;28;47417;-71
2023/08/12 02:40:52;;;;;;;;;3.33;2.00;;;;;22.44;78.32;101278.78;5019664;28;45584;-72
2023/08/12 02:43:17;;;;;;;;;2.00;2.00;;;;;22.51;78.29;101279.59;5019623;28;45578;-70
2023/08/12 02:45:43;;;;;;;;;2.67;2.00;;;;;22.49;78.57;101265.44;5019695;28;45306;-69
2023/08/12 02:48:11;;;;;;;;;1.00;1.00;;;;;22.45;78.36;101270.44;5019171;28;45678;-70
2023/08/12 02:50:37;;;;;;;;;2.25;2.25;;;;;22.47;78.82;101281.06;5001547;28;46150;-71
2023/08/12 02:53:03;;;;;;;;;1.75;1.75;;;;;22.43;78.18;101277.13;5019234;28;45420;-71
2023/08/12 02:55:28;;;;;;;;;1.00;1.00;;;;;22.44;78.35;101273.38;5019820;28;45412;-69
2023/08/12 02:57:54;;;;;;;;;0.00;0.00;;;;;22.47;78.66;101278.38;5018844;28;63431;-71
2023/08/12 03:00:20;;;;;;;;;1.00;1.00;;;;;22.36;79.29;101268.13;5019232;28;45771;-69
2023/08/12 03:02:45;;;;;;;;;0.00;0.00;;;;;22.31;78.71;101263.34;5001597;28;45448;-70
2023/08/12 03:05:10;;;;;;;;;1.00;1.00;;;;;22.42;78.72;101280.84;5019816;28;45396;-70
2023/08/12 03:07:36;;;;;;;;;0.75;0.75;;;;;22.33;79.58;101272.09;5001174;28;48689;-70
2023/08/12 03:10:01;;;;;;;;;1.00;1.00;;;;;22.28;79.58;101260.22;5019201;28;45378;-71
2023/08/12 03:12:26;;;;;;;;;1.00;1.00;;;;;22.29;79.33;101267.31;5019527;28;45363;-70
2023/08/12 03:14:52;;;;;;;;;1.00;1.00;;;;;22.32;79.78;101264.19;5019039;28;45249;-70
2023/08/12 03:17:17;;;;;;;;;1.00;1.00;;;;;22.27;78.94;101261.28;5019145;28;46107;-70
2023/08/12 03:19:43;;;;;;;;;1.00;1.00;;;;;22.29;78.77;101253.78;5019035;28;45349;-70
2023/08/12 03:22:08;;;;;;;;;0.25;0.25;;;;;22.31;78.75;101257.94;5019301;28;45499;-70
2023/08/12 03:24:34;;;;;;;;;1.00;1.00;;;;;22.21;79.42;101235.00;5019316;28;45289;-70
2023/08/12 03:26:59;;;;;;;;;1.50;1.50;;;;;22.26;79.06;101256.91;5000805;28;49976;-70
2023/08/12 03:29:25;;;;;;;;;1.00;1.00;;;;;22.33;79.04;101258.56;5018762;28;45360;-70
2023/08/12 03:31:50;;;;;;;;;0.25;0.25;;;;;22.38;78.84;101266.06;5018895;28;45608;-71
2023/08/12 03:34:15;;;;;;;;;1.00;1.00;;;;;22.35;79.08;101252.94;5018860;28;46822;-70
2023/08/12 03:36:41;;;;;;;;;1.00;1.00;;;;;22.32;79.75;101264.19;5018878;28;46857;-70
2023/08/12 03:39:06;;;;;;;;;1.75;1.75;;;;;22.27;79.39;101245.03;5001161;28;45590;-70
2023/08/12 03:41:31;;;;;;;;;1.00;1.00;;;;;22.27;79.68;101245.03;5001367;28;45764;-70
2023/08/12 03:43:57;;;;;;;;;1.25;1.25;;;;;22.25;79.25;101228.16;5019133;28;45467;-70
2023/08/12 03:46:22;;;;;;;;;0.00;0.00;;;;;22.14;79.08;101214.19;5000753;28;47325;-71
2023/08/12 03:48:47;;;;;;;;;0.75;0.75;;;;;22.36;79.43;101244.59;5018928;28;45320;-70
2023/08/12 03:51:13;;;;;;;;;1.00;1.00;;;;;21.92;79.55;101177.50;5019074;28;45470;-71
2023/08/12 03:53:38;;;;;;;;;3.25;2.00;;;;;22.24;80.14;101235.44;5018879;28;45340;-70
2023/08/12 03:56:04;;;;;;;;;3.00;1.25;;;;;22.22;80.05;101223.13;5018818;28;45612;-73
2023/08/12 03:58:29;;;;;;;;;1.25;1.00;;;;;22.23;80.21;101243.78;5018633;28;45477;-70
2023/08/12 04:00:55;;;;;;;;;1.75;1.75;;;;;21.83;80.09;101168.75;5018445;28;45253;-70
2023/08/12 04:03:20;;;;;;;;;1.00;1.00;;;;;21.87;79.99;101163.75;5018921;28;45445;-70
2023/08/12 04:05:51;;;;;;;;;3.50;1.00;;;;;22.30;80.00;101244.59;5018541;28;46458;-70
2023/08/12 04:08:26;;;;;;;;;1.00;1.00;;;;;22.33;79.87;101238.75;5017922;28;45277;-71
2023/08/12 04:10:52;;;;;;;;;1.00;1.00;;;;;22.29;79.65;101223.97;5018520;28;45355;-69
2023/08/12 04:13:17;;;;;;;;;3.00;1.00;;;;;22.28;79.75;101225.03;5018769;28;45447;-70
2023/08/12 04:15:48;;;;;;;;;1.00;1.00;;;;;21.91;79.98;101162.28;5017809;28;46606;-70
2023/08/12 04:18:13;;;;;;;;;1.00;1.00;;;;;22.21;79.95;101205.22;5018290;28;45251;-71
2023/08/12 04:20:38;;;;;;;;;2.25;2.25;;;;;22.10;79.77;101177.72;5018617;28;45316;-71
2023/08/12 04:23:04;;;;;;;;;0.50;0.50;;;;;22.25;79.80;101195.66;5017854;28;46028;-70
2023/08/12 04:25:29;;;;;;;;;2.00;2.00;;;;;22.34;80.17;101221.47;4999528;28;53776;-71
2023/08/12 04:27:54;;;;;;;;;1.00;1.00;;;;;22.37;79.41;101210.19;5016992;28;67314;-71
2023/08/12 04:30:21;;;;;;;;;1.00;1.00;;;;;22.36;79.50;101206.66;5017273;28;45408;-70
2023/08/12 04:32:46;;;;;;;;;1.00;1.00;;;;;22.22;79.25;101179.78;5018267;28;45371;-70
2023/08/12 04:35:11;;;;;;;;;1.50;1.50;;;;;21.98;79.34;101141.44;5017339;28;45542;-69
2023/08/12 04:37:37;;;;;;;;;1.50;1.50;;;;;22.14;79.31;101162.72;5000335;28;45402;-70
2023/08/12 04:40:07;;;;;;;;;1.00;1.00;;;;;22.43;79.11;101207.50;5017918;28;45773;-70
2023/08/12 04:42:32;;;;;;;;;1.75;1.75;;;;;22.30;79.23;101190.44;5018215;28;45367;-70
2023/08/12 04:44:58;;;;;;;;;1.00;1.00;;;;;22.38;79.18;101209.16;5017229;28;45465;-70
2023/08/12 04:47:23;;;;;;;;;1.00;1.00;;;;;22.31;79.78;101202.94;5017505;28;49132;-70
2023/08/12 04:49:48;;;;;;;;;2.25;1.75;;;;;22.03;80.02;101160.63;5017025;28;45337;-70
2023/08/12 04:52:14;;;;;;;;;2.00;1.00;;;;;22.30;79.98;101207.50;4999791;28;45476;-70
2023/08/12 04:54:39;;;;;;;;;1.50;1.50;;;;;22.09;79.67;101184.19;5017451;28;46363;-71
2023/08/12 04:57:05;;;;;;;;;1.75;1.75;;;;;21.97;80.59;101169.56;5017610;28;45395;-71
2023/08/12 04:59:30;;;;;;;;;3.00;0.50;;;;;22.25;80.07;101214.59;4999463;28;45525;-68
2023/08/12 05:01:56;;;;;;;;;1.00;1.00;;;;;22.21;79.84;101202.50;5017836;28;45321;-71
2023/08/12 05:04:21;;;;;;;;;3.00;1.00;;;;;22.29;80.25;101211.25;5017163;28;46706;-70
2023/08/12 05:06:46;;;;;;;;;1.00;1.00;;;;;22.34;80.32;101207.91;4999665;28;45396;-70
2023/08/12 05:09:13;;;;;;;;;1.00;1.00;;;;;22.34;79.76;101202.50;4999124;28;61573;-70
2023/08/12 05:11:39;;;;;;;;;4.00;4.00;;;;;22.34;79.30;101197.09;5017943;28;45455;-71
2023/08/12 05:14:04;;;;;;;;;7.25;7.25;;;;;22.44;79.24;101209.16;5016495;28;55642;-70
2023/08/12 05:16:29;;;;;;;;;2.00;2.00;;;;;22.50;79.20;101217.50;5017018;28;48807;-71
2023/08/12 05:18:55;;;;;;;;;1.00;1.00;;;;;22.45;79.46;101213.53;5017455;28;45212;-70
2023/08/12 05:21:20;;;;;;;;;0.00;0.00;;;;;22.50;79.27;101218.31;5017649;28;45200;-70
2023/08/12 05:23:45;;;;;;;;;0.00;0.00;;;;;22.35;79.35;101193.31;5017109;28;45645;-70
2023/08/12 05:26:11;;;;;;;;;0.75;0.50;;;;;22.50;79.33;101212.06;5016881;28;54521;-71
2023/08/12 05:28:36;;;;;;;;;0.00;0.00;;;;;22.46;78.98;101206.25;4999167;28;45351;-69
2023/08/12 05:31:01;;;;;;;;;1.00;1.00;;;;;22.64;79.40;101225.41;5017176;28;45376;-70
2023/08/12 05:33:27;;;;;;;;;1.00;1.00;;;;;22.62;78.42;101213.91;5017229;28;46513;-70
2023/08/12 05:35:52;;;;;;;;;0.00;0.00;;;;;22.65;78.67;101216.22;5016653;28;59528;-69
2023/08/12 05:38:17;;;;;;;;;1.00;1.00;;;;;22.62;78.51;101202.22;5017197;28;45453;-70
2023/08/12 05:40:42;;;;;;;;;1.00;1.00;;;;;22.80;78.34;101231.38;5017014;28;45178;-71
2023/08/12 05:43:08;;;;;;;;;0.00;0.00;;;;;22.54;78.22;101180.78;5016785;28;46032;-71
2023/08/12 05:45:33;;;;;;;;;0.00;0.00;;;;;22.82;77.26;101237.44;5016369;28;45317;-70
2023/08/12 05:47:59;;;;;;;;;1.00;0.00;;;;;22.72;77.24;101229.75;5016885;28;45880;-70
2023/08/12 05:50:24;;;;;;;;;0.50;0.50;;;;;22.61;77.26;101220.38;4998974;28;45509;-70
2023/08/12 05:52:49;;;;;;;;;0.25;0.25;;;;;22.69;77.79;101233.72;4998873;28;46466;-70
2023/08/12 05:55:15;;;;;;;;;0.00;0.00;;;;;22.76;76.98;101242.66;5016363;28;45383;-69
2023/08/12 05:57:40;;;;;;;;;0.00;0.00;;;;;22.75;77.01;101234.75;5016812;28;45831;-70
2023/08/12 06:00:06;;;;;;;;;0.00;0.00;;;;;22.68;76.94;101221.22;4998308;28;57020;-70
2023/08/12 06:02:31;;;;;;;;;1.00;1.00;;;;;22.74;76.93;101228.47;5020371;28;47119;-70
2023/08/12 06:04:57;;;;;;;;;0.50;0.50;;;;;22.72;76.94;101218.91;5002158;28;46129;-71
2023/08/12 06:07:23;;;;;;;;;0.00;0.00;;;;;22.88;76.21;101228.50;5020339;28;45347;-71
2023/08/12 06:09:49;;;;;;;;;0.00;0.00;;;;;22.74;75.96;101209.50;5018996;28;45431;-69
2023/08/12 06:12:14;;;;;;;;;2.75;2.75;;;;;22.78;75.68;101221.59;5019663;28;46213;-72
2023/08/12 06:14:40;;;;;;;;;0.25;0.25;;;;;22.72;75.67;101210.78;5019537;28;45301;-70
2023/08/12 06:17:05;;;;;;;;;0.25;0.25;;;;;22.90;75.92;101229.09;5020120;28;45246;-70
2023/08/12 06:19:31;;;;;;;;;0.50;0.50;;;;;22.93;75.30;101234.09;5019842;28;45514;-69
2023/08/12 06:21:56;;;;;;;;;0.25;0.25;;;;;22.95;75.34;101238.25;5019777;28;45437;-71
2023/08/12 06:24:22;;;;;;;;;0.00;0.00;;;;;22.91;75.43;101228.06;5019635;28;45428;-70
2023/08/12 06:26:47;;;;;;;;;1.00;1.00;;;;;22.95;75.46;101221.16;5019802;28;45616;-70
2023/08/12 06:29:12;;;;;;;;;0.00;0.00;;;;;22.94;74.92;101211.38;5035031;28;45464;-70
2023/08/12 06:31:38;;;;;;;;;0.00;0.00;;;;;22.93;74.90;101212.41;5019545;28;45880;-70
2023/08/12 06:34:03;;;;;;;;;0.00;0.00;;;;;22.97;74.40;101225.31;5019598;28;45318;-70
2023/08/12 06:36:28;;;;;;;;;1.00;1.00;;;;;22.97;75.25;101229.91;5019720;28;45236;-70
2023/08/12 06:38:54;;;;;;;;;0.00;0.00;;;;;22.95;74.52;101221.16;5001904;28;45503;-70
2023/08/12 06:41:19;;;;;;;;;0.75;0.25;;;;;22.86;74.70;101223.28;5019031;28;45396;-70
2023/08/12 06:43:44;;;;;;;;;0.50;0.00;;;;;22.95;74.75;101232.84;5019029;28;55370;-71
2023/08/12 06:46:10;;;;;;;;;0.00;0.00;;;;;22.94;74.67;101224.91;5019309;28;45456;-71
2023/08/12 06:48:35;;;;;;;;;0.00;0.00;;;;;22.98;74.79;101215.31;5019852;28;45524;-71
2023/08/12 06:51:06;;;;;;;;;1.25;1.25;;;;;22.75;74.72;101173.22;5000860;28;47694;-71
2023/08/12 06:53:32;;;;;;;;;1.00;1.00;;;;;23.09;74.29;101222.78;5019628;28;45330;-69
2023/08/12 06:55:57;;;;;;;;;1.00;1.00;;;;;23.09;73.49;101206.50;5001253;28;45389;-70
2023/08/12 06:58:22;;;;;;;;;0.75;0.75;;;;;23.15;73.84;101215.66;5019814;28;45475;-70
2023/08/12 07:00:48;;;;;;;;;0.00;0.00;;;;;23.19;74.04;101220.44;5019079;28;45292;-70
2023/08/12 07:03:13;;;;;;;;;0.00;0.00;;;;;23.35;72.97;101238.94;5019394;28;45490;-70
2023/08/12 07:05:38;;;;;;;;;0.50;0.50;;;;;23.36;73.39;101235.16;5019097;28;45505;-71
2023/08/12 07:08:04;;;;;;;;;1.00;1.00;;;;;23.30;73.72;101230.63;5019319;28;45253;-70
2023/08/12 07:10:29;;;;;;;;;0.00;0.00;;;;;23.32;73.57;101222.25;5019117;28;45801;-70
2023/08/12 07:12:55;;;;;;;;;3.75;3.75;;;;;23.46;73.72;101244.75;5018751;28;45330;-71
2023/08/12 07:15:20;;;;;;;;;0.00;0.00;;;;;23.44;73.05;101238.72;5018834;28;45454;-70
2023/08/12 07:17:45;;;;;;;;;2.00;2.00;;;;;23.47;73.47;101251.84;5001838;28;45296;-70
2023/08/12 07:20:11;;;;;;;;;0.00;0.00;;;;;23.42;73.68;101236.19;5018941;28;46436;-70
2023/08/12 07:22:36;;;;;;;;;1.00;0.25;;;;;23.42;73.04;101251.63;5018548;28;63499;-70
2023/08/12 07:25:01;;;;;;;;;0.00;0.00;;;;;22.96;73.93;101196.53;5019066;28;45363;-71
2023/08/12 07:27:27;;;;;;;;;0.00;0.00;;;;;23.33;73.44;101262.75;5001225;28;45455;-70
2023/08/12 07:29:53;;;;;;;;;0.00;0.00;;;;;23.35;73.98;101273.38;5018263;28;45865;-70
2023/08/12 07:32:19;;;;;;;;;0.50;0.00;;;;;23.21;71.72;101263.63;5018519;28;45446;-69
2023/08/12 07:34:44;;;;;;;;;1.00;1.00;;;;;22.88;72.10;101233.91;5018715;28;45700;-70
2023/08/12 07:37:10;;;;;;;;;1.50;1.00;;;;;22.99;72.13;101272.03;5001139;28;45655;-70
2023/08/12 07:39:35;;;;;;;;;0.25;0.25;;;;;22.74;73.01;101263.72;5000853;28;47689;-71
2023/08/12 07:42:00;;;;;;;;;1.00;1.00;;;;;22.87;73.05;101295.44;5018912;28;45326;-70
2023/08/12 07:44:26;;;;;;;;;0.00;0.00;;;;;22.83;72.16;101296.09;5018756;28;45500;-70
2023/08/12 07:46:51;;;;;;;;;1.50;0.00;;;;;22.77;72.25;101303.97;5018986;28;45495;-70
2023/08/12 07:49:16;;;;;;;;;0.00;0.00;;;;;22.67;71.27;101298.16;5018639;28;45644;-70
2023/08/12 07:51:42;;;;;;;;;1.50;1.50;;;;;22.56;71.66;101295.22;5018556;28;45459;-70
2023/08/12 07:54:07;;;;;;;;;1.00;1.00;;;;;22.48;71.82;101304.41;5018647;28;47622;-70
2023/08/12 07:56:32;;;;;;;;;1.00;1.00;;;;;22.45;71.45;101304.84;5018692;28;45483;-70
2023/08/12 07:58:58;;;;;;;;;1.50;1.50;;;;;22.52;71.84;101315.66;5018149;28;59815;-70
2023/08/12 08:01:23;;;;;;;;;1.00;1.00;;;;;22.37;70.76;101303.16;5018120;28;45281;-70
2023/08/12 08:03:48;;;;;;;;;2.50;1.50;;;;;22.38;71.09;101312.94;5017842;28;45772;-69
2023/08/12 08:06:14;;;;;;;;;1.00;1.00;;;;;22.20;70.99;101288.34;5017981;28;45426;-69
2023/08/12 08:08:39;;;;;;;;;2.00;2.00;;;;;22.41;71.23;101317.09;5018076;28;45627;-69
2023/08/12 08:11:05;;;;;;;;;3.25;2.50;;;;;22.44;71.26;101312.13;5016343;28;45518;-70
2023/08/12 08:13:30;;;;;;;;;1.50;1.00;;;;;22.56;71.16;101322.31;5016179;28;45545;-70
2023/08/12 08:15:55;;;;;;;;;0.75;0.75;;;;;22.57;71.23;101326.69;5017653;28;45710;-70
2023/08/12 08:18:21;;;;;;;;;0.75;0.75;;;;;22.62;70.95;101324.19;5016412;28;46428;-69
2023/08/12 08:20:46;;;;;;;;;1.75;1.75;;;;;22.49;69.99;101308.78;5016315;28;45379;-69
2023/08/12 08:23:11;;;;;;;;;2.00;1.00;;;;;22.59;70.67;101311.91;5015632;28;46315;-71
2023/08/12 08:25:37;;;;;;;;;1.00;1.00;;;;;22.69;70.89;101320.47;4998427;28;45332;-71
2023/08/12 08:28:03;;;;;;;;;0.50;0.50;;;;;22.75;70.62;101322.31;5015907;28;45705;-71
2023/08/12 08:30:29;;;;;;;;;1.00;1.00;;;;;22.75;70.27;101297.91;5016939;28;45519;-69
2023/08/12 08:32:54;;;;;;;;;1.50;1.25;;;;;22.82;70.24;101302.53;5016365;28;45412;-70
2023/08/12 08:35:19;;;;;;;;;3.00;2.00;;;;;22.93;69.96;101299.19;4998756;28;45466;-70
2023/08/12 08:37:45;;;;;;;;;3.00;3.00;;;;;22.58;68.60;101228.09;5017250;28;46795;-72
2023/08/12 08:40:10;;;;;;;;;1.50;1.50;;;;;23.24;68.89;101331.03;5017479;28;45220;-70
2023/08/12 08:42:37;;;;;;;;;1.50;1.00;;;;;23.27;69.40;101334.16;5017798;28;45259;-70
2023/08/12 08:45:05;;;;;;;;;0.50;0.25;;;;;23.30;68.83;101328.28;4999761;28;45339;-70
2023/08/12 08:47:30;;;;;;;;;4.00;3.00;;;;;23.28;69.00;101314.13;5017130;28;47014;-69
2023/08/12 08:49:57;;;;;;;;;4.50;3.00;;;;;23.45;68.63;101328.03;5017428;28;45360;-71
2023/08/12 08:52:25;;;;;;;;;0.75;0.75;;;;;23.46;67.64;101326.16;5017254;28;45391;-70
2023/08/12 08:54:51;;;;;;;;;3.00;1.00;;;;;23.56;67.59;101327.38;5017283;28;45545;-69
2023/08/12 08:57:19;;;;;;;;;2.75;1.00;;;;;23.84;67.72;101329.78;5017222;28;46560;-70
2023/08/12 08:59:44;;;;;;;;;1.75;1.75;;;;;24.34;66.72;101323.63;5016988;28;45327;-70
2023/08/12 09:02:16;;;;;;;;;3.00;1.50;;;;;24.81;64.44;101331.16;5032432;28;45364;-73
2023/08/12 09:04:42;;;;;;;;;1.00;0.75;;;;;25.16;63.36;101327.91;5017621;28;45421;-71
2023/08/12 09:07:08;;;;;;;;;1.75;0.75;;;;;25.52;61.39;101331.69;5017147;28;45774;-71
2023/08/12 09:09:35;;;;;;;;;1.25;1.00;;;;;25.61;61.04;101303.91;5017099;28;45301;-71
2023/08/12 09:12:03;;;;;;;;;1.00;1.00;;;;;25.95;60.42;101321.50;5017321;28;45345;-71
2023/08/12 09:14:28;;;;;;;;;0.75;0.75;;;;;26.04;59.42;101332.91;5017038;28;45456;-69
2023/08/12 09:16:55;;;;;;;;;4.00;1.00;;;;;26.05;58.34;101334.56;5017186;28;46673;-71
2023/08/12 09:19:20;;;;;;;;;1.75;1.00;;;;;26.06;58.17;101323.44;5017188;28;45569;-70
2023/08/12 09:21:53;;;;;;;;;2.00;1.00;;;;;26.21;58.16;101333.06;5017012;28;45228;-71
2023/08/12 09:24:24;;;;;;;;;1.00;1.00;;;;;26.38;57.84;101320.44;5017397;28;45561;-70
2023/08/12 09:26:54;;;;;;;;;2.25;2.25;;;;;26.65;57.05;101321.69;4999224;28;48353;-70
2023/08/12 09:29:23;;;;;;;;;1.00;1.00;;;;;26.86;57.23;101320.25;5016916;28;45391;-70
2023/08/12 09:31:48;;;;;;;;;2.00;1.00;;;;;27.04;56.38;101324.78;5017174;28;45514;-70
2023/08/12 09:34:14;;;;;;;;;4.00;2.50;;;;;27.28;56.18;101320.94;4999008;28;45634;-70
2023/08/12 09:36:40;;;;;;;;;2.00;1.00;;;;;27.67;53.97;101323.97;4998734;28;48236;-70
2023/08/12 09:39:08;;;;;;;;;3.75;1.50;;;;;28.11;51.89;101296.91;5016861;28;45286;-70
2023/08/12 09:41:34;;;;;;;;;1.00;1.00;;;;;29.02;48.85;101308.47;4998987;28;45477;-71
2023/08/12 09:44:02;;;;;;;;;2.00;1.50;;;;;30.21;48.39;101327.72;5017220;28;45202;-71
2023/08/12 09:46:27;;;;;;;;;1.25;1.25;;;;;30.90;46.10;101273.94;5015418;28;45955;-70
2023/08/12 09:48:53;;;;;;;;;1.25;1.25;;;;;31.94;44.74;101333.44;5016434;28;45326;-70
2023/08/12 09:51:19;;;;;;;;;3.00;2.50;;;;;32.17;43.66;101321.91;4998510;28;45427;-70
2023/08/12 09:53:48;;;;;;;;;1.00;0.75;;;;;32.04;42.00;101338.97;5016845;28;45356;-69
2023/08/12 09:56:19;;;;;;;;;2.75;2.25;;;;;31.54;41.91;101318.47;5016387;28;46179;-69
2023/08/12 09:58:48;;;;;;;;;5.50;4.00;;;;;31.04;43.39;101297.91;5016441;28;45307;-70
2023/08/12 10:01:14;;;;;;;;;3.25;2.00;;;;;30.92;43.91;101349.44;5015260;28;45307;-71
2023/08/12 10:03:42;;;;;;;;;1.75;1.00;;;;;30.40;44.50;101336.41;5015287;28;45515;-70
2023/08/12 10:06:08;;;;;;;;;1.00;1.00;;;;;30.08;45.51;101352.84;4996671;28;46603;-71
2023/08/12 10:08:35;;;;;;;;;0.00;0.00;;;;;29.59;46.75;101330.06;5016045;28;45459;-70
2023/08/12 10:11:01;;;;;;;;;1.50;1.50;;;;;29.42;47.03;101340.22;5015038;28;45401;-70
2023/08/12 10:13:26;;;;;;;;;1.00;1.00;;;;;29.14;47.13;101343.97;5014736;28;45563;-70
2023/08/12 10:15:51;;;;;;;;;2.00;1.00;;;;;28.89;47.91;101311.59;5015866;28;45746;-70
2023/08/12 10:18:19;;;;;;;;;1.00;1.00;;;;;28.91;47.93;101337.63;4998479;28;45368;-70
2023/08/12 10:20:45;;;;;;;;;1.00;1.00;;;;;28.75;48.50;101322.03;5016456;28;45325;-70
2023/08/12 10:23:16;;;;;;;;;2.75;1.25;;;;;28.71;48.14;101340.88;5016877;28;45580;-71
2023/08/12 10:25:43;;;;;;;;;0.00;0.00;;;;;28.51;48.89;101326.03;5016311;28;46638;-70
2023/08/12 10:28:08;;;;;;;;;1.75;1.75;;;;;28.50;49.10;101340.78;5016349;28;45387;-70
2023/08/12 10:30:35;;;;;;;;;2.00;2.00;;;;;28.33;49.14;101338.03;5016295;28;45500;-69
2023/08/12 10:33:00;;;;;;;;;1.00;1.00;;;;;28.22;49.57;101333.44;5016696;28;45198;-70
2023/08/12 10:35:46;;;;;;;;;1.00;0.00;;;;;28.05;49.99;101336.16;5016282;28;45863;-70
2023/08/12 10:38:20;;;;;;;;;1.00;1.00;;;;;27.85;50.50;101320.22;5016268;28;45483;-71
2023/08/12 10:40:46;;;;;;;;;2.50;1.50;;;;;27.79;50.20;101332.09;4998639;28;45331;-70
2023/08/12 10:43:15;;;;;;;;;0.00;0.00;;;;;27.67;50.36;101334.88;5016514;28;45214;-70
2023/08/12 10:45:42;;;;;;;;;0.00;0.00;;;;;27.53;50.68;101326.09;5015838;28;45640;-70
2023/08/12 10:48:08;;;;;;;;;3.75;2.75;;;;;27.46;51.61;101328.16;5018813;28;45371;-70
2023/08/12 10:50:34;;;;;;;;;1.00;1.00;;;;;27.06;52.14;101272.69;5019669;28;45503;-70
2023/08/12 10:53:29;;;;;;;;;1.25;1.25;;;;;27.27;51.41;101323.94;5020076;28;45342;-70
2023/08/12 10:55:57;;;;;;;;;3.00;3.00;;;;;27.11;52.25;101325.50;5019391;28;46473;-70
2023/08/12 10:58:41;;;;;;;;;0.00;0.00;;;;;27.07;52.19;101331.66;5019278;28;45460;-70
2023/08/12 11:01:13;;;;;;;;;1.00;1.00;;;;;27.08;51.91;101316.94;5018879;28;45467;-70
2023/08/12 11:03:42;;;;;;;;;4.50;4.50;;;;;27.01;52.10;101294.41;5019853;28;45529;-69
2023/08/12 11:06:10;;;;;;;;;2.00;2.00;;;;;27.17;51.17;101312.78;5019220;28;47031;-70
2023/08/12 11:08:35;;;;;;;;;1.25;1.00;;;;;27.26;51.56;101325.81;5019382;28;45546;-69
2023/08/12 11:11:02;;;;;;;;;2.00;1.00;;;;;27.21;51.32;101308.47;5019496;28;45471;-70
2023/08/12 11:13:28;;;;;;;;;0.00;0.00;;;;;27.04;52.11;101296.66;5019461;28;45309;-70
2023/08/12 11:16:07;;;;;;;;;3.00;1.50;;;;;26.82;52.01;101261.75;5018656;28;47837;-71
2023/08/12 11:18:33;;;;;;;;;1.75;1.75;;;;;26.80;51.25;101254.88;5018995;28;45275;-69
2023/08/12 11:20:58;;;;;;;;;1.00;1.00;;;;;27.04;51.19;101297.50;5019687;28;45473;-69